Time;durP1;ratioP1;P1;durP2;ratioP2;P2;SDS_P1;SDS_P2;PMS_P1;PMS_P2;Temp;Humidity;BMP_temperature;BMP_pressure;BME280_temperature;BME280_humidity;BME280_pressure;Samples;Min_cycle;Max_cycle;Signal;HPM_P1;HPM_P2
2021/03/13 00:01:10;;;;;;;12.87;8.17;;;2.70;2.50;;;;;;4793672;28;20239;-84
2021/03/13 00:03:33;;;;;;;11.50;6.83;;;2.70;1.00;;;;;;4780564;28;20373;-76
2021/03/13 00:05:56;;;;;;;14.47;8.27;;;2.70;1.00;;;;;;4783242;28;20226;-84
2021/03/13 00:08:18;;;;;;;10.83;7.13;;;2.60;1.00;;;;;;4784665;28;20305;-73
2021/03/13 00:10:42;;;;;;;14.40;8.13;;;2.60;1.00;;;;;;4787288;28;20606;-82
2021/03/13 00:13:04;;;;;;;12.33;7.37;;;2.60;1.00;;;;;;4775965;28;20657;-84
2021/03/13 00:15:27;;;;;;;11.40;7.37;;;2.40;1.00;;;;;;4795604;28;20249;-82
2021/03/13 00:17:51;;;;;;;11.87;7.40;;;2.40;1.00;;;;;;4797067;28;20208;-83
2021/03/13 00:20:18;;;;;;;12.30;7.40;;;2.40;17.50;;;;;;4795261;28;20207;-85
2021/03/13 00:22:40;;;;;;;12.57;7.27;;;2.30;33.00;;;;;;4880681;28;20330;-80
2021/03/13 00:25:03;;;;;;;12.10;7.23;;;2.30;47.60;;;;;;4792840;28;20204;-73
2021/03/13 00:27:25;;;;;;;12.63;7.10;;;2.20;54.50;;;;;;4789511;28;20797;-72
2021/03/13 00:29:47;;;;;;;11.20;6.57;;;2.30;78.30;;;;;;4779429;28;20255;-81
2021/03/13 00:32:09;;;;;;;9.80;6.20;;;2.30;67.10;;;;;;4779501;28;20210;-82
2021/03/13 00:34:31;;;;;;;10.30;6.50;;;2.30;58.60;;;;;;4779806;28;20228;-79
2021/03/13 00:36:54;;;;;;;10.83;6.53;;;2.20;48.40;;;;;;4779010;28;20188;-86
2021/03/13 00:39:17;;;;;;;10.73;7.00;;;2.20;92.80;;;;;;4780495;28;20193;-87
2021/03/13 00:41:39;;;;;;;9.90;6.40;;;2.20;94.40;;;;;;4780888;28;20189;-84
2021/03/13 00:44:01;;;;;;;11.03;6.80;;;2.20;99.90;;;;;;4780963;28;20547;-82
2021/03/13 00:46:24;;;;;;;10.77;6.87;;;2.10;99.90;;;;;;4795195;28;20193;-84
2021/03/13 00:48:46;;;;;;;10.77;6.23;;;2.10;99.90;;;;;;4779927;28;20193;-80
2021/03/13 00:51:08;;;;;;;9.73;6.00;;;2.20;99.90;;;;;;4771227;28;20194;-82
2021/03/13 00:53:32;;;;;;;9.20;6.40;;;2.10;99.90;;;;;;4781457;28;20220;-82
2021/03/13 00:55:54;;;;;;;9.47;6.30;;;2.10;99.90;;;;;;4797176;28;20238;-74
2021/03/13 00:58:23;;;;;;;11.83;7.20;;;2.00;99.90;;;;;;4773935;28;20656;-78
2021/03/13 01:00:51;;;;;;;12.00;6.80;;;2.00;99.90;;;;;;4822282;28;20753;-84
2021/03/13 01:03:18;;;;;;;9.93;6.80;;;2.00;99.90;;;;;;4796963;28;20593;-74
2021/03/13 01:05:42;;;;;;;10.10;6.57;;;2.00;99.90;;;;;;4778955;28;20208;-81
2021/03/13 01:08:06;;;;;;;9.90;6.97;;;2.00;99.90;;;;;;4779737;28;20197;-78
2021/03/13 01:10:34;;;;;;;9.63;6.53;;;2.00;99.90;;;;;;4792979;28;20212;-84
2021/03/13 01:12:57;;;;;;;9.77;6.13;;;1.90;99.90;;;;;;4783533;28;20233;-86
2021/03/13 01:15:22;;;;;;;10.87;6.50;;;1.80;99.90;;;;;;4779610;28;20812;-84
2021/03/13 01:17:47;;;;;;;9.60;5.77;;;1.80;99.90;;;;;;4788101;28;20205;-76
2021/03/13 01:20:12;;;;;;;12.43;5.73;;;1.70;99.90;;;;;;4778798;28;20212;-80
2021/03/13 01:22:35;;;;;;;10.43;6.07;;;1.70;99.90;;;;;;4779064;28;20188;-84
2021/03/13 01:24:59;;;;;;;9.83;6.97;;;1.60;99.90;;;;;;4763228;28;20224;-85
2021/03/13 01:27:22;;;;;;;11.10;7.20;;;1.50;99.90;;;;;;4786228;28;20571;-85
2021/03/13 01:29:44;;;;;;;11.43;6.83;;;1.50;99.90;;;;;;4789370;28;20245;-80
2021/03/13 01:32:07;;;;;;;10.03;6.37;;;1.40;99.90;;;;;;4796803;28;20718;-79
2021/03/13 01:34:33;;;;;;;9.93;6.97;;;1.40;99.90;;;;;;4795706;28;20714;-76
2021/03/13 01:37:06;;;;;;;9.10;5.67;;;1.20;99.90;;;;;;4853535;28;20220;-78
2021/03/13 01:39:32;;;;;;;8.40;5.30;;;1.40;1.00;;;;;;4763135;28;20251;-73
2021/03/13 01:41:55;;;;;;;9.23;6.07;;;1.40;1.00;;;;;;4778987;28;20189;-82
2021/03/13 01:44:18;;;;;;;10.20;5.47;;;1.30;1.00;;;;;;4860222;28;20197;-83
2021/03/13 01:46:41;;;;;;;10.10;5.73;;;1.40;1.00;;;;;;4784322;28;20249;-85
2021/03/13 01:49:03;;;;;;;9.43;5.07;;;1.40;1.00;;;;;;4781378;28;20205;-76
2021/03/13 01:51:30;;;;;;;8.33;5.03;;;1.50;1.00;;;;;;4788679;28;20246;-86
2021/03/13 01:53:58;;;;;;;8.27;5.07;;;1.60;1.00;;;;;;4777396;28;20278;-79
2021/03/13 01:56:23;;;;;;;7.10;5.07;;;1.70;1.00;;;;;;4778295;28;20306;-80
2021/03/13 01:58:48;;;;;;;7.30;4.63;;;1.70;99.90;;;;;;4762915;28;20645;-72
2021/03/13 02:01:14;;;;;;;7.87;4.97;;;1.80;99.90;;;;;;4777465;28;20706;-80
2021/03/13 02:03:38;;;;;;;7.33;4.73;;;1.80;99.90;;;;;;4779663;28;20774;-74
2021/03/13 02:06:00;;;;;;;7.07;5.17;;;1.70;99.90;;;;;;4793879;28;20242;-85
2021/03/13 02:08:31;;;;;;;8.57;5.27;;;1.80;99.90;;;;;;4797104;28;20192;-80
2021/03/13 02:11:02;;;;;;;6.57;4.63;;;1.70;99.90;;;;;;4797922;28;20212;-84
2021/03/13 02:13:29;;;;;;;7.70;4.70;;;1.70;99.90;;;;;;4778171;28;20237;-81
2021/03/13 02:15:58;;;;;;;9.33;5.40;;;1.80;99.90;;;;;;4793106;28;20290;-82
2021/03/13 02:18:34;;;;;;;9.60;6.10;;;1.70;99.90;;;;;;4778109;29;20713;-83
2021/03/13 02:21:06;;;;;;;12.03;8.30;;;1.70;99.90;;;;;;4858133;28;20347;-83
2021/03/13 02:23:36;;;;;;;9.90;7.40;;;1.70;99.90;;;;;;4797534;28;20207;-83
2021/03/13 02:26:23;;;;;;;8.93;6.23;;;1.70;99.90;;;;;;4787539;28;20732;-77
2021/03/13 02:29:31;;;;;;;10.60;6.00;;;1.60;99.90;;;;;;4803410;28;20262;-81
2021/03/13 02:31:58;;;;;;;8.77;6.60;;;1.50;99.90;;;;;;4777524;28;20190;-86
2021/03/13 02:34:28;;;;;;;7.57;5.23;;;1.40;99.90;;;;;;4781657;28;20228;-79
2021/03/13 02:36:53;;;;;;;10.50;5.90;;;1.40;99.90;;;;;;4779956;28;20235;-74
2021/03/13 02:39:20;;;;;;;8.27;6.10;;;1.20;99.90;;;;;;4782378;28;20192;-81
2021/03/13 02:41:53;;;;;;;9.20;6.70;;;1.20;99.90;;;;;;4865273;28;20192;-84
2021/03/13 02:44:20;;;;;;;8.63;7.17;;;1.10;99.90;;;;;;4865238;28;20190;-75
2021/03/13 02:46:52;;;;;;;9.17;6.70;;;1.00;99.90;;;;;;4765613;29;20196;-77
2021/03/13 02:49:21;;;;;;;9.30;6.87;;;0.80;99.90;;;;;;4796731;28;20207;-72
2021/03/13 02:51:48;;;;;;;11.97;7.60;;;0.70;1.00;;;;;;4799138;28;20234;-77
2021/03/13 02:54:12;;;;;;;11.60;7.70;;;0.60;1.00;;;;;;4800714;28;20584;-81
2021/03/13 02:56:36;;;;;;;11.83;8.30;;;0.50;1.00;;;;;;4782273;28;20209;-81
2021/03/13 02:59:01;;;;;;;12.40;8.17;;;0.40;1.00;;;;;;4795989;28;20204;-85
2021/03/13 03:01:29;;;;;;;11.07;7.93;;;0.40;1.00;;;;;;4795129;28;20252;-72
2021/03/13 03:03:56;;;;;;;13.83;8.97;;;0.30;1.00;;;;;;4789904;28;20239;-78
2021/03/13 03:06:23;;;;;;;17.47;11.30;;;0.20;1.00;;;;;;4768657;28;21059;-72
2021/03/13 03:08:48;;;;;;;17.10;10.57;;;0.20;99.90;;;;;;4883797;28;20957;-73
2021/03/13 03:11:20;;;;;;;12.43;7.87;;;0.00;99.90;;;;;;4799556;28;20658;-83
2021/03/13 03:13:44;;;;;;;16.77;11.47;;;-0.10;99.90;;;;;;4784454;28;20282;-84
2021/03/13 03:16:08;;;;;;;23.80;14.57;;;-0.20;99.90;;;;;;4786563;28;20615;-84
2021/03/13 03:18:32;;;;;;;21.03;15.73;;;-0.30;1.00;;;;;;4798680;28;20637;-82
2021/03/13 03:20:57;;;;;;;22.97;14.97;;;-0.30;1.00;;;;;;4799196;28;20633;-84
2021/03/13 03:23:19;;;;;;;24.10;15.27;;;-0.40;1.00;;;;;;4795199;28;20235;-83
2021/03/13 03:25:42;;;;;;;21.83;15.53;;;-0.50;1.00;;;;;;4799024;28;20284;-82
2021/03/13 03:28:06;;;;;;;19.57;14.57;;;-0.60;1.00;;;;;;4799393;28;20571;-85
2021/03/13 03:30:40;;;;;;;18.60;12.30;;;-0.60;84.40;;;;;;4788842;28;20623;-83
2021/03/13 03:33:03;;;;;;;17.37;13.07;;;-0.70;1.00;;;;;;4781255;28;21252;-73
2021/03/13 03:35:28;;;;;;;17.43;12.70;;;-0.60;1.00;;;;;;4780707;28;20714;-82
2021/03/13 03:37:53;;;;;;;14.63;10.77;;;-0.70;1.00;;;;;;4776707;28;20196;-82
2021/03/13 03:40:18;;;;;;;15.50;9.53;;;-0.60;99.90;;;;;;4789913;28;20657;-81
2021/03/13 03:42:45;;;;;;;12.77;9.13;;;-0.50;99.90;;;;;;4844890;28;21056;-84
2021/03/13 03:45:10;;;;;;;13.37;8.10;;;-0.40;1.00;;;;;;4764089;28;20628;-83
2021/03/13 03:47:33;;;;;;;11.80;7.67;;;-0.20;99.90;;;;;;4794495;28;20669;-73
2021/03/13 03:50:01;;;;;;;10.90;6.73;;;-0.10;1.00;;;;;;4780139;29;20665;-85
2021/03/13 03:52:38;;;;;;;12.33;7.90;;;-0.10;57.80;;;;;;4788319;28;20630;-84
2021/03/13 03:55:03;;;;;;;10.93;7.50;;;-0.10;1.00;;;;;;4794554;28;20671;-84
2021/03/13 03:57:26;;;;;;;10.87;7.77;;;0.00;1.00;;;;;;4781914;28;20197;-85
2021/03/13 03:59:49;;;;;;;14.93;9.73;;;-0.10;99.90;;;;;;4797724;28;20703;-80
2021/03/13 04:02:12;;;;;;;13.90;9.87;;;-0.10;1.00;;;;;;4793552;28;20580;-85
2021/03/13 04:04:35;;;;;;;15.30;10.97;;;-0.10;99.90;;;;;;4785943;28;20266;-85
2021/03/13 04:06:59;;;;;;;16.03;11.47;;;0.10;99.90;;;;;;4782489;28;20227;-85
2021/03/13 04:09:24;;;;;;;16.33;11.73;;;0.00;99.90;;;;;;4777786;28;20266;-85
2021/03/13 04:11:48;;;;;;;12.93;9.87;;;0.10;1.00;;;;;;4775341;28;20709;-88
2021/03/13 04:14:10;;;;;;;12.27;9.50;;;0.20;1.00;;;;;;4798450;28;20701;-86
2021/03/13 04:16:34;;;;;;;16.77;10.67;;;0.00;99.90;;;;;;4799426;28;20196;-79
2021/03/13 04:18:58;;;;;;;17.20;11.67;;;-0.10;30.90;;;;;;4866811;28;20262;-84
2021/03/13 04:21:20;;;;;;;22.87;15.73;;;-0.20;1.00;;;;;;4818574;28;20197;-89
2021/03/13 04:23:46;;;;;;;38.07;23.47;;;-0.20;1.00;;;;;;4855240;28;20623;-84
2021/03/13 04:26:08;;;;;;;44.50;26.90;;;-0.40;1.00;;;;;;4838424;28;20196;-88
2021/03/13 04:28:31;;;;;;;33.27;20.70;;;-0.40;99.90;;;;;;4798461;28;20196;-87
2021/03/13 04:30:53;;;;;;;20.30;12.40;;;-0.50;99.90;;;;;;4798479;28;20212;-84
2021/03/13 04:33:17;;;;;;;14.33;8.47;;;-0.50;99.90;;;;;;4795353;28;20208;-82
2021/03/13 04:35:40;;;;;;;8.07;5.50;;;-0.40;99.90;;;;;;4798893;28;20273;-85
2021/03/13 04:38:03;;;;;;;5.53;3.83;;;-0.10;1.00;;;;;;4781508;28;20615;-78
2021/03/13 04:40:25;;;;;;;29.13;17.17;;;0.10;99.90;;;;;;4780793;28;21132;-88
2021/03/13 04:42:49;;;;;;;22.80;13.47;;;0.40;99.90;;;;;;4781012;28;20660;-85
2021/03/13 04:45:15;;;;;;;68.03;33.33;;;0.50;1.00;;;;;;4763302;28;20248;-81
2021/03/13 04:47:38;;;;;;;41.67;22.47;;;0.50;1.00;;;;;;4765973;28;20654;-82
2021/03/13 04:50:00;;;;;;;6.80;4.10;;;0.60;99.90;;;;;;4799481;28;20188;-87
2021/03/13 04:52:22;;;;;;;3.93;2.97;;;0.80;1.00;;;;;;4797332;28;20249;-82
2021/03/13 04:54:44;;;;;;;5.10;2.50;;;1.00;73.10;;;;;;4787057;28;20298;-85
2021/03/13 04:57:07;;;;;;;4.23;2.33;;;1.30;1.00;;;;;;4787893;28;20210;-87
2021/03/13 04:59:30;;;;;;;2.60;1.90;;;1.50;99.90;;;;;;4778790;28;20266;-87
2021/03/13 05:01:53;;;;;;;3.03;1.80;;;1.80;1.00;;;;;;4783061;28;20285;-87
2021/03/13 05:04:15;;;;;;;3.87;2.10;;;2.00;99.90;;;;;;4799015;28;20184;-81
2021/03/13 05:06:37;;;;;;;2.50;2.10;;;2.20;1.00;;;;;;4798068;28;20188;-78
2021/03/13 05:09:00;;;;;;;4.27;2.13;;;2.40;1.00;;;;;;4796065;28;20654;-87
2021/03/13 05:11:22;;;;;;;2.27;1.87;;;2.70;1.00;;;;;;4798595;28;20184;-85
2021/03/13 05:13:44;;;;;;;3.80;1.80;;;2.90;99.90;;;;;;4784191;28;20703;-86
2021/03/13 05:16:06;;;;;;;2.50;1.50;;;3.10;99.90;;;;;;4790679;28;20209;-81
2021/03/13 05:18:29;;;;;;;2.03;1.90;;;3.30;99.90;;;;;;4874397;28;20654;-84
2021/03/13 05:20:51;;;;;;;2.07;1.87;;;3.40;99.90;;;;;;4797748;28;20196;-77
2021/03/13 05:23:13;;;;;;;2.57;1.93;;;3.50;84.60;;;;;;4791914;28;20188;-86
2021/03/13 05:25:35;;;;;;;3.27;1.87;;;3.60;99.90;;;;;;4797920;28;20241;-85
2021/03/13 05:27:57;;;;;;;2.53;1.60;;;3.80;61.10;;;;;;4785118;28;20192;-83
2021/03/13 05:30:20;;;;;;;2.27;1.80;;;3.90;44.80;;;;;;4778722;28;20646;-83
2021/03/13 05:32:43;;;;;;;1.83;1.70;;;3.90;35.20;;;;;;4789757;28;20188;-81
2021/03/13 05:35:09;;;;;;;3.00;1.53;;;3.90;18.90;;;;;;4796879;28;20647;-77
2021/03/13 05:37:31;;;;;;;2.40;1.97;;;4.00;1.00;;;;;;4897682;28;20229;-78
2021/03/13 05:39:53;;;;;;;1.90;1.70;;;4.10;1.00;;;;;;4789175;28;20250;-86
2021/03/13 05:42:17;;;;;;;2.03;1.83;;;4.20;1.00;;;;;;4789062;28;20234;-86
2021/03/13 05:44:39;;;;;;;2.03;1.73;;;4.30;1.00;;;;;;4789472;28;20200;-83
2021/03/13 05:47:02;;;;;;;2.17;1.70;;;4.30;1.00;;;;;;4792173;28;20192;-84
2021/03/13 05:49:26;;;;;;;2.63;1.60;;;4.50;1.00;;;;;;4879196;28;20235;-76
2021/03/13 05:51:49;;;;;;;2.50;1.40;;;4.50;1.00;;;;;;4781270;28;20250;-82
2021/03/13 05:54:13;;;;;;;2.40;1.60;;;4.70;1.00;;;;;;4777267;28;20278;-77
2021/03/13 05:56:36;;;;;;;2.13;1.63;;;4.70;1.00;;;;;;4789371;28;20654;-86
2021/03/13 05:58:59;;;;;;;2.07;1.87;;;4.80;1.00;;;;;;4763994;28;20206;-81
2021/03/13 06:01:22;;;;;;;1.87;1.50;;;5.00;1.00;;;;;;4788730;28;20231;-85
2021/03/13 06:03:44;;;;;;;2.10;1.90;;;5.10;1.00;;;;;;4784836;28;20278;-85
2021/03/13 06:06:08;;;;;;;2.10;1.63;;;5.20;1.00;;;;;;4872363;28;20246;-80
2021/03/13 06:08:31;;;;;;;2.53;1.40;;;5.30;1.00;;;;;;4783078;28;20249;-84
2021/03/13 06:10:55;;;;;;;3.07;1.57;;;5.40;1.00;;;;;;4782693;28;20197;-81
2021/03/13 06:13:17;;;;;;;1.67;1.40;;;5.50;1.00;;;;;;4778728;28;20266;-77
2021/03/13 06:15:40;;;;;;;2.20;1.57;;;5.50;1.00;;;;;;4790414;28;20211;-84
2021/03/13 06:18:04;;;;;;;3.00;1.57;;;5.60;1.00;;;;;;4797676;28;20188;-82
2021/03/13 06:20:31;;;;;;;1.90;1.80;;;5.70;1.00;;;;;;4776576;28;20193;-82
2021/03/13 06:22:53;;;;;;;1.73;1.50;;;5.70;1.00;;;;;;4786896;28;20249;-81
2021/03/13 06:25:30;;;;;;;2.03;1.83;;;5.80;1.00;;;;;;4778116;28;20188;-79
2021/03/13 06:28:13;;;;;;;2.50;1.97;;;5.90;1.00;;;;;;4795937;28;20176;-83
2021/03/13 06:30:37;;;;;;;2.23;1.73;;;6.00;1.00;;;;;;4784084;28;20208;-74
2021/03/13 06:32:59;;;;;;;2.87;1.97;;;6.00;1.00;;;;;;4888254;28;20195;-80
2021/03/13 06:35:24;;;;;;;2.90;1.93;;;6.10;1.00;;;;;;4790576;28;20630;-82
2021/03/13 06:37:46;;;;;;;2.80;1.70;;;6.20;1.00;;;;;;4783653;28;20192;-81
2021/03/13 06:40:10;;;;;;;1.83;1.60;;;6.20;1.00;;;;;;4785397;28;20366;-81
2021/03/13 06:42:34;;;;;;;1.93;1.70;;;6.20;1.00;;;;;;4797692;28;20221;-78
2021/03/13 06:44:57;;;;;;;2.77;1.80;;;6.30;1.00;;;;;;4790646;28;20254;-82
2021/03/13 06:47:29;;;;;;;2.83;1.70;;;6.30;1.00;;;;;;4770310;28;20205;-79
2021/03/13 06:50:08;;;;;;;1.90;1.73;;;6.40;1.00;;;;;;4778976;28;20239;-82
2021/03/13 06:52:30;;;;;;;1.77;1.67;;;6.40;1.00;;;;;;4778564;29;20732;-86
2021/03/13 06:54:52;;;;;;;2.60;1.80;;;6.40;1.00;;;;;;4777136;28;20236;-79
2021/03/13 06:57:20;;;;;;;2.90;2.03;;;6.50;1.00;;;;;;4892044;28;20732;-85
2021/03/13 06:59:49;;;;;;;2.10;1.90;;;6.50;1.00;;;;;;4789131;28;20220;-86
2021/03/13 07:02:12;;;;;;;2.50;1.90;;;6.50;1.00;;;;;;4776723;28;20663;-86
2021/03/13 07:04:36;;;;;;;3.17;1.97;;;6.60;1.00;;;;;;4794491;28;20188;-85
2021/03/13 07:06:59;;;;;;;3.90;2.27;;;6.70;1.00;;;;;;4779789;28;20247;-81
2021/03/13 07:09:43;;;;;;;4.17;2.20;;;6.70;1.00;;;;;;4789353;28;20184;-79
2021/03/13 07:12:21;;;;;;;2.07;1.87;;;6.80;1.00;;;;;;4898396;28;20223;-84
2021/03/13 07:14:44;;;;;;;2.83;1.83;;;7.00;1.00;;;;;;4798578;28;20224;-82
2021/03/13 07:17:06;;;;;;;2.10;1.83;;;7.10;1.00;;;;;;4794293;28;20201;-83
2021/03/13 07:19:28;;;;;;;2.93;2.00;;;7.30;1.00;;;;;;4781148;28;20193;-86
2021/03/13 07:21:52;;;;;;;2.13;1.93;;;7.40;1.00;;;;;;4780651;28;20677;-84
2021/03/13 07:24:14;;;;;;;1.70;1.60;;;7.50;1.00;;;;;;4781928;28;20629;-87
2021/03/13 07:26:38;;;;;;;1.93;1.73;;;7.60;1.00;;;;;;4779849;28;20201;-86
2021/03/13 07:29:01;;;;;;;1.77;1.60;;;7.70;1.00;;;;;;4792225;28;20192;-79
2021/03/13 07:31:27;;;;;;;1.60;1.47;;;7.80;1.00;;;;;;4791915;28;20528;-86
2021/03/13 07:33:49;;;;;;;2.33;1.80;;;7.80;1.00;;;;;;4787943;28;20282;-83
2021/03/13 07:36:16;;;;;;;2.07;1.40;;;8.00;1.00;;;;;;4791682;28;20727;-81
2021/03/13 07:38:41;;;;;;;1.30;1.20;;;8.00;1.00;;;;;;4782469;28;20622;-80
2021/03/13 07:41:03;;;;;;;1.70;1.50;;;8.20;1.00;;;;;;4832636;28;20197;-78
2021/03/13 07:43:26;;;;;;;1.80;1.27;;;8.20;1.00;;;;;;4780908;28;20238;-81
2021/03/13 07:45:51;;;;;;;1.47;1.37;;;8.30;1.00;;;;;;4784575;28;20557;-80
2021/03/13 07:48:16;;;;;;;1.73;1.40;;;8.40;1.00;;;;;;4798531;28;20563;-85
2021/03/13 07:50:40;;;;;;;3.00;1.30;;;8.50;1.00;;;;;;4797619;28;20681;-83
2021/03/13 07:53:03;;;;;;;1.57;1.47;;;8.60;1.00;;;;;;4799026;28;20242;-73
2021/03/13 07:55:26;;;;;;;2.73;1.63;;;8.70;1.00;;;;;;4797420;28;20246;-80
2021/03/13 07:57:50;;;;;;;1.77;1.40;;;8.70;1.00;;;;;;4798351;28;20192;-73
2021/03/13 08:00:14;;;;;;;1.50;1.40;;;8.80;1.00;;;;;;4797762;28;20260;-76
2021/03/13 08:02:41;;;;;;;1.83;1.73;;;9.00;1.00;;;;;;4795835;28;21077;-77
2021/03/13 08:05:06;;;;;;;1.70;1.30;;;9.30;1.00;;;;;;4797426;28;20212;-77
2021/03/13 08:07:30;;;;;;;1.57;1.47;;;9.60;1.00;;;;;;4780158;28;20192;-76
2021/03/13 08:09:52;;;;;;;1.30;1.20;;;9.80;1.00;;;;;;4790194;28;20326;-78
2021/03/13 08:12:39;;;;;;;1.40;1.30;;;10.20;1.00;;;;;;4793569;28;20236;-78
2021/03/13 08:15:01;;;;;;;1.10;1.00;;;10.40;1.00;;;;;;4793934;28;20196;-81
2021/03/13 08:17:38;;;;;;;1.10;1.00;;;10.70;1.00;;;;;;4783555;28;20708;-72
2021/03/13 08:20:07;;;;;;;1.10;1.00;;;10.70;1.00;;;;;;4793411;28;20242;-72
2021/03/13 08:22:29;;;;;;;1.10;1.00;;;10.80;1.00;;;;;;4778839;28;20200;-73
2021/03/13 08:24:53;;;;;;;1.30;1.10;;;10.80;1.00;;;;;;4793123;28;20243;-73
2021/03/13 08:27:38;;;;;;;1.40;1.30;;;10.70;1.00;;;;;;4786296;28;20204;-80
2021/03/13 08:30:01;;;;;;;1.30;1.10;;;10.60;1.00;;;;;;4791909;28;20238;-74
2021/03/13 08:33:03;;;;;;;1.20;1.10;;;10.60;1.00;;;;;;4831137;28;20298;-73
2021/03/13 08:35:43;;;;;;;1.27;1.17;;;10.60;1.00;;;;;;4838741;28;20219;-74
2021/03/13 08:38:06;;;;;;;1.30;1.20;;;10.50;1.00;;;;;;4789276;28;20208;-72
2021/03/13 08:40:29;;;;;;;1.10;1.00;;;10.50;1.00;;;;;;4764173;28;20616;-73
2021/03/13 08:42:51;;;;;;;1.10;1.10;;;10.50;1.00;;;;;;4781256;28;20196;-73
2021/03/13 08:45:15;;;;;;;1.30;1.00;;;10.50;1.00;;;;;;4880312;28;20201;-73
2021/03/13 08:47:48;;;;;;;1.10;1.00;;;10.50;1.00;;;;;;4766954;29;20785;-73
2021/03/13 08:50:11;;;;;;;1.20;1.10;;;10.50;1.00;;;;;;4801208;28;20382;-72
2021/03/13 08:52:34;;;;;;;1.27;1.17;;;10.40;1.00;;;;;;4785286;28;20238;-75
2021/03/13 08:54:56;;;;;;;1.40;1.23;;;10.40;1.00;;;;;;4786371;28;20536;-72
2021/03/13 08:57:39;;;;;;;1.30;1.10;;;10.40;1.00;;;;;;4781844;28;20196;-73
2021/03/13 09:00:03;;;;;;;1.63;1.53;;;10.50;1.00;;;;;;4777533;28;20199;-72
2021/03/13 09:02:28;;;;;;;2.60;1.20;;;10.70;1.00;;;;;;4785634;28;20590;-72
2021/03/13 09:04:52;;;;;;;1.20;1.00;;;11.20;1.00;;;;;;4778885;28;20215;-72
2021/03/13 09:07:16;;;;;;;1.77;1.10;;;12.00;1.00;;;;;;4778713;28;20884;-73
2021/03/13 09:09:40;;;;;;;0.80;0.80;;;12.80;1.00;;;;;;4780543;28;20218;-72
2021/03/13 09:12:06;;;;;;;1.00;0.90;;;13.20;1.00;;;;;;4796149;28;20223;-72
2021/03/13 09:14:28;;;;;;;0.73;0.73;;;13.30;1.00;;;;;;4792589;28;20209;-72
2021/03/13 09:16:50;;;;;;;2.90;1.00;;;13.00;1.00;;;;;;4780621;28;20274;-73
2021/03/13 09:19:14;;;;;;;1.00;0.83;;;12.80;1.00;;;;;;4794843;28;20208;-72
2021/03/13 09:21:41;;;;;;;1.00;0.90;;;12.70;1.00;;;;;;4796974;28;20204;-76
2021/03/13 09:24:03;;;;;;;2.13;1.03;;;12.70;1.00;;;;;;4780183;28;20205;-72
2021/03/13 09:26:26;;;;;;;0.87;0.77;;;13.20;1.00;;;;;;4782091;28;20622;-72
2021/03/13 09:28:48;;;;;;;1.00;0.73;;;13.80;1.00;;;;;;4793540;28;20752;-74
2021/03/13 09:31:12;;;;;;;0.63;0.63;;;15.00;1.00;;;;;;4796363;28;20671;-72
2021/03/13 09:33:34;;;;;;;1.07;0.50;;;15.70;1.00;;;;;;4770791;28;20278;-72
2021/03/13 09:36:09;;;;;;;0.50;0.50;;;16.00;1.00;;;;;;4779738;28;20219;-72
2021/03/13 09:38:31;;;;;;;0.63;0.53;;;16.30;1.00;;;;;;4788582;28;20179;-73
2021/03/13 09:40:52;;;;;;;0.60;0.60;;;17.70;1.00;;;;;;4794925;28;20238;-76
2021/03/13 09:43:16;;;;;;;0.33;0.33;;;18.60;1.00;;;;;;4772152;28;20209;-70
2021/03/13 09:45:39;;;;;;;0.30;0.30;;;19.70;1.00;;;;;;4793718;28;20734;-69
2021/03/13 09:48:03;;;;;;;0.30;0.30;;;20.00;1.00;;;;;;4797333;28;20189;-71
2021/03/13 09:50:27;;;;;;;0.27;0.27;;;20.10;1.00;;;;;;4792416;28;20841;-70
2021/03/13 09:52:50;;;;;;;0.30;0.30;;;20.00;1.00;;;;;;4796448;28;20690;-71
2021/03/13 09:55:14;;;;;;;0.20;0.20;;;19.70;99.90;;;;;;4779857;28;20254;-73
2021/03/13 09:57:38;;;;;;;0.30;0.30;;;19.30;99.90;;;;;;4783030;28;20200;-73
2021/03/13 10:00:01;;;;;;;0.20;0.20;;;20.10;99.90;;;;;;4787886;28;20189;-71
2021/03/13 10:02:24;;;;;;;0.20;0.20;;;21.50;99.90;;;;;;4791968;28;20300;-70
2021/03/13 10:04:46;;;;;;;0.20;0.20;;;22.10;99.90;;;;;;4797223;28;20185;-70
2021/03/13 10:07:08;;;;;;;0.20;0.20;;;22.20;99.90;;;;;;4787552;28;20188;-70
2021/03/13 10:09:30;;;;;;;0.20;0.20;;;21.60;99.90;;;;;;4805446;28;20211;-71
2021/03/13 10:11:52;;;;;;;0.20;0.20;;;21.20;99.90;;;;;;4814352;28;20227;-71
2021/03/13 10:14:18;;;;;;;0.20;0.20;;;21.60;99.90;;;;;;4796916;28;20182;-70
2021/03/13 10:16:41;;;;;;;0.30;0.30;;;21.50;99.90;;;;;;4793881;28;20220;-70
2021/03/13 10:19:03;;;;;;;0.20;0.20;;;21.40;99.90;;;;;;4798314;28;20184;-70
2021/03/13 10:21:25;;;;;;;0.20;0.20;;;21.50;99.90;;;;;;4797144;28;20204;-71
2021/03/13 10:23:47;;;;;;;0.20;0.20;;;22.20;99.90;;;;;;4795511;28;20196;-71
2021/03/13 10:26:14;;;;;;;0.20;0.20;;;22.60;99.90;;;;;;4787142;28;20611;-70
2021/03/13 10:28:38;;;;;;;0.20;0.20;;;22.20;99.90;;;;;;4777403;28;20200;-77
2021/03/13 10:31:08;;;;;;;0.30;0.30;;;21.30;99.90;;;;;;4811500;28;20239;-70
2021/03/13 10:33:32;;;;;;;0.20;0.20;;;19.90;99.90;;;;;;4792202;28;20193;-71
2021/03/13 10:35:54;;;;;;;0.30;0.30;;;18.90;99.90;;;;;;4772917;28;20757;-70
2021/03/13 10:38:19;;;;;;;0.23;0.23;;;18.50;99.90;;;;;;4776343;29;20270;-72
2021/03/13 10:40:43;;;;;;;0.30;0.30;;;20.00;99.90;;;;;;4793201;28;20204;-71
2021/03/13 10:43:21;;;;;;;0.30;0.30;;;20.80;99.90;;;;;;4797019;28;20241;-70
2021/03/13 10:45:44;;;;;;;0.20;0.20;;;21.60;99.90;;;;;;4780458;28;20192;-70
2021/03/13 10:48:08;;;;;;;0.20;0.20;;;21.70;99.90;;;;;;4788927;28;20646;-71
2021/03/13 10:50:31;;;;;;;0.20;0.20;;;22.80;99.90;;;;;;4799710;28;20315;-70
2021/03/13 10:52:53;;;;;;;0.20;0.20;;;24.20;99.90;;;;;;4798460;28;20687;-70
2021/03/13 10:55:15;;;;;;;0.20;0.20;;;24.20;99.90;;;;;;4784984;28;21013;-72
2021/03/13 10:58:01;;;;;;;0.20;0.20;;;24.30;99.90;;;;;;4786435;28;20196;-70
2021/03/13 11:00:23;;;;;;;0.40;0.20;;;25.10;99.90;;;;;;4800797;28;20222;-72
2021/03/13 11:02:45;;;;;;;0.20;0.20;;;24.90;99.90;;;;;;4770486;28;20695;-71
2021/03/13 11:05:08;;;;;;;0.30;0.30;;;24.60;99.90;;;;;;4780314;28;20189;-71
2021/03/13 11:07:34;;;;;;;0.20;0.20;;;24.30;99.90;;;;;;4783404;28;20213;-70
2021/03/13 11:09:56;;;;;;;0.20;0.20;;;23.90;99.90;;;;;;4789198;28;20229;-72
2021/03/13 11:12:18;;;;;;;0.20;0.20;;;24.10;99.90;;;;;;4828378;28;20269;-70
2021/03/13 11:14:40;;;;;;;0.20;0.20;;;23.90;99.90;;;;;;4783224;28;20681;-74
2021/03/13 11:17:02;;;;;;;0.20;0.20;;;23.80;99.90;;;;;;4784784;28;20614;-71
2021/03/13 11:19:25;;;;;;;0.20;0.20;;;23.70;99.90;;;;;;4797680;28;20204;-72
2021/03/13 11:21:48;;;;;;;0.20;0.20;;;23.50;99.90;;;;;;4780747;28;20610;-71
2021/03/13 11:24:12;;;;;;;0.20;0.20;;;23.60;99.90;;;;;;4786412;28;20232;-70
2021/03/13 11:26:34;;;;;;;0.20;0.20;;;24.00;99.90;;;;;;4798621;28;20190;-70
2021/03/13 11:28:56;;;;;;;0.20;0.20;;;24.00;99.90;;;;;;4796065;28;20241;-70
2021/03/13 11:31:19;;;;;;;0.20;0.20;;;23.30;99.90;;;;;;4881679;28;20203;-71
2021/03/13 11:33:41;;;;;;;0.20;0.20;;;23.10;99.90;;;;;;4797156;28;20242;-71
2021/03/13 11:36:05;;;;;;;0.20;0.20;;;22.30;99.90;;;;;;4778888;28;20319;-76
2021/03/13 11:38:27;;;;;;;0.20;0.20;;;22.40;99.90;;;;;;4781154;28;20251;-71
2021/03/13 11:40:50;;;;;;;0.30;0.30;;;21.90;99.90;;;;;;4784316;28;20248;-72
2021/03/13 11:43:12;;;;;;;0.20;0.20;;;21.40;99.90;;;;;;4791554;28;20193;-83
2021/03/13 11:45:34;;;;;;;0.20;0.20;;;20.50;99.90;;;;;;4782399;28;20266;-78
2021/03/13 11:47:57;;;;;;;0.20;0.20;;;19.40;99.90;;;;;;4797655;28;20241;-79
2021/03/13 11:50:19;;;;;;;0.30;0.30;;;17.90;99.90;;;;;;4780637;28;20259;-79
2021/03/13 11:52:42;;;;;;;0.20;0.20;;;17.10;99.90;;;;;;4789841;28;20193;-83
2021/03/13 11:55:06;;;;;;;0.40;0.40;;;16.40;99.90;;;;;;4780289;28;20246;-86
2021/03/13 11:57:29;;;;;;;0.33;0.33;;;16.00;99.90;;;;;;4787721;28;20204;-73
2021/03/13 11:59:51;;;;;;;0.40;0.40;;;16.00;99.90;;;;;;4778680;28;20263;-71
2021/03/13 12:02:14;;;;;;;0.40;0.40;;;16.50;99.90;;;;;;4792028;28;20286;-75
2021/03/13 12:04:36;;;;;;;0.43;0.30;;;17.10;99.90;;;;;;4798940;28;20218;-72
2021/03/13 12:06:58;;;;;;;0.30;0.30;;;18.10;99.90;;;;;;4795713;28;20196;-72
2021/03/13 12:09:20;;;;;;;0.30;0.30;;;18.70;99.90;;;;;;4793823;28;20314;-77
2021/03/13 12:11:42;;;;;;;0.20;0.20;;;19.10;99.90;;;;;;4798180;28;20352;-71
2021/03/13 12:14:05;;;;;;;0.30;0.30;;;19.00;99.90;;;;;;4785866;28;20235;-71
2021/03/13 12:16:27;;;;;;;0.20;0.20;;;19.20;99.90;;;;;;4782433;28;20318;-73
2021/03/13 12:18:50;;;;;;;0.30;0.30;;;19.50;99.90;;;;;;4822499;28;20263;-73
2021/03/13 12:21:12;;;;;;;0.20;0.20;;;19.10;99.90;;;;;;4779020;28;20205;-72
2021/03/13 12:23:35;;;;;;;0.30;0.30;;;18.50;99.90;;;;;;4785558;28;20196;-71
2021/03/13 12:25:57;;;;;;;0.30;0.30;;;17.60;99.90;;;;;;4791894;28;20431;-71
2021/03/13 12:28:19;;;;;;;0.20;0.20;;;16.90;99.90;;;;;;4778422;28;20197;-76
2021/03/13 12:30:42;;;;;;;0.40;0.40;;;16.30;99.90;;;;;;4780806;28;21083;-72
2021/03/13 12:33:04;;;;;;;0.40;0.40;;;15.60;99.90;;;;;;4779916;28;20354;-73
2021/03/13 12:35:26;;;;;;;0.50;0.50;;;15.00;99.90;;;;;;4778623;28;20201;-74
2021/03/13 12:37:48;;;;;;;0.60;0.60;;;14.40;99.90;;;;;;4788077;28;20208;-73
2021/03/13 12:40:11;;;;;;;0.80;0.80;;;13.90;99.90;;;;;;4796986;28;20204;-72